Terminal Aerodrome Forecast
Issued by NWS Wakefield, VA

Home | Current Version | Previous Version | Text Only | Print | Product List | Glossary On
Versions: 1 2 3 4 5 6 7 8 9 10 11 12 13 14 15 16 17 18
509
FTUS41 KAKQ 191207 AAA
TAFRIC
TAF AMD
KRIC 191207Z 1912/2012 29021G30KT P6SM SCT250
     FM191600 31015G24KT P6SM SKC
     FM200200 30009KT P6SM SKC=

USA.gov is the U.S. government's official web portal to all federal, state and local government web resources and services.